createdAt,value
2019-05-05T00:00:44.642Z,99.59
2019-05-05T00:01:45.146Z,99.99
2019-05-05T00:02:44.838Z,99.80
2019-05-05T00:03:44.941Z,99.91
2019-05-05T00:04:45.529Z,99.99
2019-05-05T00:05:45.256Z,99.99
2019-05-05T00:06:44.609Z,99.99
2019-05-05T00:07:45.587Z,99.99
2019-05-05T00:08:45.648Z,99.99
2019-05-05T00:09:45.956Z,99.99
2019-05-05T00:10:45.267Z,99.99
2019-05-05T00:11:46.238Z,99.99
2019-05-05T00:12:45.409Z,99.99
2019-05-05T00:13:45.636Z,99.99
2019-05-05T00:14:45.832Z,99.99
2019-05-05T00:15:46.070Z,99.99
2019-05-05T00:16:46.260Z,99.99
2019-05-05T00:17:46.493Z,99.95
2019-05-05T00:18:46.751Z,99.99
2019-05-05T00:19:46.862Z,99.99
2019-05-05T00:20:47.052Z,99.99
2019-05-05T00:21:47.252Z,99.99
2019-05-05T00:22:47.465Z,99.74
2019-05-05T00:23:48.188Z,99.99
2019-05-05T00:24:48.191Z,99.99
2019-05-05T00:25:48.687Z,99.99
2019-05-05T00:26:48.126Z,99.99
2019-05-05T00:27:48.312Z,99.99
2019-05-05T00:28:48.501Z,99.99
2019-05-05T00:29:48.722Z,99.99
2019-05-05T00:30:48.925Z,99.99
2019-05-05T00:31:49.126Z,99.99
2019-05-05T00:32:49.364Z,99.99
2019-05-05T00:33:49.624Z,99.99
2019-05-05T00:34:50.684Z,99.99
2019-05-05T00:35:51.691Z,99.99
2019-05-05T00:37:25.695Z,99.99
2019-05-05T00:37:51.207Z,99.99
2019-05-05T00:38:51.527Z,99.99
2019-05-05T00:39:50.693Z,99.99
2019-05-05T00:40:51.712Z,99.99
2019-05-05T00:41:51.713Z,99.99
2019-05-05T00:42:51.742Z,99.99
2019-05-05T00:43:52.240Z,99.99
2019-05-05T00:44:51.822Z,99.99
2019-05-05T00:45:52.007Z,99.99
2019-05-05T00:46:52.225Z,99.99
2019-05-05T00:47:54.364Z,99.99
2019-05-05T00:48:52.548Z,99.99
2019-05-05T00:49:52.778Z,99.99
2019-05-05T00:50:52.980Z,99.99
2019-05-05T00:51:54.653Z,99.99
2019-05-05T00:52:55.083Z,99.99
2019-05-05T00:53:55.491Z,99.99
2019-05-05T00:54:55.578Z,99.99
2019-05-05T00:55:54.700Z,99.99
2019-05-05T00:56:55.182Z,99.99
2019-05-05T00:57:54.905Z,99.99
2019-05-05T00:58:55.498Z,99.99
2019-05-05T00:59:54.652Z,99.99
2019-05-05T01:00:54.913Z,99.99
2019-05-05T01:01:56.015Z,99.99
2019-05-05T01:02:55.187Z,99.99
2019-05-05T01:03:55.391Z,99.99
2019-05-05T01:04:55.541Z,99.99
2019-05-05T01:05:55.744Z,99.99
2019-05-05T01:06:55.949Z,99.99
2019-05-05T01:07:56.162Z,99.99
2019-05-05T01:08:56.387Z,99.99
2019-05-05T01:09:56.595Z,99.99
2019-05-05T01:10:56.809Z,99.99
2019-05-05T01:12:15.927Z,99.99
2019-05-05T01:12:57.262Z,99.99
2019-05-05T01:13:57.508Z,99.99
2019-05-05T01:14:57.604Z,99.99
2019-05-05T01:15:58.814Z,99.99
2019-05-05T01:16:58.008Z,99.99
2019-05-05T01:17:58.131Z,99.99
2019-05-05T01:18:58.346Z,99.99
2019-05-05T01:20:03.706Z,99.99
2019-05-05T01:21:00.692Z,99.99
2019-05-05T01:21:58.936Z,99.99
2019-05-05T01:22:59.105Z,99.99
2019-05-05T01:23:59.366Z,99.99
2019-05-05T01:24:59.427Z,99.99
2019-05-05T01:25:59.650Z,99.99
2019-05-05T01:26:59.823Z,99.99
2019-05-05T01:28:00.015Z,99.99
2019-05-05T01:29:00.206Z,99.99
2019-05-05T01:30:00.365Z,99.99
2019-05-05T01:31:00.542Z,99.99
2019-05-05T01:32:00.721Z,99.99
2019-05-05T01:33:00.904Z,99.99
2019-05-05T01:34:01.096Z,99.99
2019-05-05T01:35:01.266Z,99.99
2019-05-05T01:36:01.440Z,99.99
2019-05-05T01:37:01.587Z,99.99
2019-05-05T01:38:01.757Z,99.99
2019-05-05T01:39:04.135Z,99.99
2019-05-05T01:40:02.196Z,99.99
2019-05-05T01:41:04.187Z,99.99
2019-05-05T01:42:04.776Z,99.99
2019-05-05T01:43:02.697Z,99.99
2019-05-05T01:44:04.866Z,99.99
2019-05-05T01:45:04.567Z,99.99
2019-05-05T01:46:05.022Z,99.99
2019-05-05T01:47:05.341Z,99.99
2019-05-05T01:48:04.961Z,99.99
2019-05-05T01:49:05.445Z,99.99
2019-05-05T01:50:17.682Z,99.99
2019-05-05T01:51:06.080Z,99.99
2019-05-05T01:52:04.420Z,99.99
2019-05-05T01:53:05.412Z,99.99
2019-05-05T01:54:05.209Z,99.99
2019-05-05T01:55:05.789Z,99.99
2019-05-05T01:56:05.047Z,99.99
2019-05-05T01:57:05.573Z,99.99
2019-05-05T01:58:06.299Z,99.99
2019-05-05T01:59:05.458Z,99.99
2019-05-05T02:00:05.679Z,99.99
2019-05-05T02:01:05.837Z,99.99
2019-05-05T02:02:05.981Z,99.99
2019-05-05T02:03:06.132Z,99.99
2019-05-05T02:04:06.306Z,99.99
2019-05-05T02:05:06.509Z,99.99
2019-05-05T02:06:06.696Z,99.99
2019-05-05T02:07:07.759Z,99.99
2019-05-05T02:08:08.728Z,99.99
2019-05-05T02:09:07.221Z,99.99
2019-05-05T02:10:07.402Z,99.99
2019-05-05T02:11:07.555Z,99.99
2019-05-05T02:12:07.741Z,99.99
2019-05-05T02:13:07.954Z,99.99
2019-05-05T02:14:08.091Z,99.99
2019-05-05T02:15:08.287Z,99.99
2019-05-05T02:16:08.480Z,99.99
2019-05-05T02:17:08.618Z,99.99
2019-05-05T02:18:08.790Z,99.99
2019-05-05T02:19:08.967Z,99.99
2019-05-05T02:20:09.146Z,99.99
2019-05-05T02:21:09.338Z,99.99
2019-05-05T02:22:09.499Z,99.99
2019-05-05T02:23:09.666Z,99.99
2019-05-05T02:24:09.840Z,99.99
2019-05-05T02:25:10.011Z,99.99
2019-05-05T02:26:10.210Z,99.99
2019-05-05T02:27:10.381Z,99.99
2019-05-05T02:28:10.515Z,99.99
2019-05-05T02:29:11.697Z,99.99
2019-05-05T02:30:10.837Z,99.99
2019-05-05T02:31:11.049Z,99.99
2019-05-05T02:32:11.213Z,99.99
2019-05-05T02:33:11.361Z,99.99
2019-05-05T02:34:11.527Z,99.99
2019-05-05T02:35:11.696Z,99.99
2019-05-05T02:36:11.895Z,99.99
2019-05-05T02:37:12.078Z,99.99
2019-05-05T02:38:15.395Z,99.99
2019-05-05T02:39:16.004Z,99.99
2019-05-05T02:40:15.619Z,99.99
2019-05-05T02:41:15.494Z,99.99
2019-05-05T02:42:14.637Z,99.99
2019-05-05T02:43:15.068Z,99.99
2019-05-05T02:44:15.439Z,99.99
2019-05-05T02:45:15.503Z,99.99
2019-05-05T02:46:14.871Z,99.99
2019-05-05T02:47:15.531Z,99.99
2019-05-05T02:48:15.640Z,99.99
2019-05-05T02:49:15.292Z,99.99
2019-05-05T02:50:15.696Z,99.99
2019-05-05T02:51:15.878Z,99.99
2019-05-05T02:52:15.299Z,99.99
2019-05-05T02:53:16.311Z,99.99
2019-05-05T02:54:15.452Z,99.99
2019-05-05T02:55:15.627Z,99.99
2019-05-05T02:56:15.816Z,99.99
2019-05-05T02:57:16.006Z,99.99
2019-05-05T02:58:16.221Z,99.99
2019-05-05T02:59:16.413Z,99.99
2019-05-05T03:00:16.614Z,99.99
2019-05-05T03:01:16.858Z,99.99
2019-05-05T03:02:17.113Z,99.99
2019-05-05T03:03:17.369Z,99.99
2019-05-05T03:04:17.436Z,99.99
2019-05-05T03:05:17.632Z,99.99
2019-05-05T03:06:17.829Z,99.99
2019-05-05T03:07:18.021Z,99.99
2019-05-05T03:08:18.235Z,99.99
2019-05-05T03:09:18.451Z,99.99
2019-05-05T03:10:18.647Z,99.99
2019-05-05T03:11:18.866Z,99.99
2019-05-05T03:12:19.058Z,99.99
2019-05-05T03:13:19.307Z,99.99
2019-05-05T03:14:19.413Z,99.99
2019-05-05T03:15:19.626Z,99.99
2019-05-05T03:16:19.866Z,99.99
2019-05-05T03:17:20.048Z,99.99
2019-05-05T03:18:20.269Z,99.99
2019-05-05T03:19:20.501Z,99.99
2019-05-05T03:20:20.751Z,99.99
2019-05-05T03:21:20.933Z,99.99
2019-05-05T03:22:21.129Z,99.99
2019-05-05T03:23:21.352Z,99.99
2019-05-05T03:24:23.497Z,99.99
2019-05-05T03:25:21.778Z,99.99
2019-05-05T03:26:23.395Z,99.99
2019-05-05T03:27:23.726Z,99.99
2019-05-05T03:28:24.004Z,99.99
2019-05-05T03:29:24.337Z,99.99
2019-05-05T03:30:25.789Z,99.99
2019-05-05T03:31:26.049Z,99.99
2019-05-05T03:32:25.453Z,99.99
2019-05-05T03:33:25.004Z,99.99
2019-05-05T03:34:24.524Z,99.99
2019-05-05T03:35:24.187Z,99.99
2019-05-05T03:36:24.932Z,99.99
2019-05-05T03:37:24.981Z,99.99
2019-05-05T03:38:25.291Z,99.99
2019-05-05T03:39:24.494Z,99.99
2019-05-05T03:40:24.713Z,99.99
2019-05-05T03:41:24.936Z,99.99
2019-05-05T03:42:25.123Z,99.99
2019-05-05T03:43:25.320Z,99.99
2019-05-05T03:44:25.514Z,99.99
2019-05-05T03:45:25.745Z,99.99
2019-05-05T03:46:25.989Z,99.99
2019-05-05T03:47:26.115Z,99.99
2019-05-05T03:48:27.107Z,99.99
2019-05-05T03:49:26.419Z,99.99
2019-05-05T03:50:26.585Z,99.99
2019-05-05T03:51:26.746Z,99.99
2019-05-05T03:52:26.890Z,99.99
2019-05-05T03:53:27.165Z,99.99
2019-05-05T03:54:27.273Z,99.99
2019-05-05T03:55:27.616Z,99.99
2019-05-05T03:56:27.711Z,99.99
2019-05-05T03:57:27.947Z,99.99
2019-05-05T03:58:28.147Z,99.99
2019-05-05T03:59:28.394Z,99.99
2019-05-05T04:00:28.519Z,99.99
2019-05-05T04:01:28.733Z,99.99
2019-05-05T04:02:28.954Z,99.99
2019-05-05T04:03:29.167Z,99.99
2019-05-05T04:04:29.389Z,99.99
2019-05-05T04:05:29.609Z,99.99
2019-05-05T04:06:29.826Z,99.99
2019-05-05T04:07:30.027Z,99.99
2019-05-05T04:08:30.260Z,99.99
2019-05-05T04:09:30.446Z,99.99
2019-05-05T04:10:30.630Z,99.99
2019-05-05T04:11:30.862Z,99.99
2019-05-05T04:12:31.045Z,99.99
2019-05-05T04:13:31.221Z,99.99
2019-05-05T04:14:31.397Z,99.99
2019-05-05T04:15:33.584Z,99.99
2019-05-05T04:16:31.788Z,99.99
2019-05-05T04:17:33.669Z,99.99
2019-05-05T04:18:34.077Z,99.99
2019-05-05T04:19:34.223Z,99.99
2019-05-05T04:20:33.746Z,99.99
2019-05-05T04:21:36.487Z,99.99
2019-05-05T04:22:34.434Z,99.99
2019-05-05T04:23:34.144Z,99.99
2019-05-05T04:24:34.137Z,99.99
2019-05-05T04:25:35.057Z,99.99
2019-05-05T04:26:34.682Z,99.99
2019-05-05T04:27:34.332Z,99.99
2019-05-05T04:28:34.982Z,99.99
2019-05-05T04:29:34.618Z,99.99
2019-05-05T04:30:35.375Z,99.99
2019-05-05T04:31:34.672Z,99.99
2019-05-05T04:32:35.786Z,99.99
2019-05-05T04:33:34.981Z,99.99
2019-05-05T04:34:35.174Z,99.99
2019-05-05T04:35:35.367Z,99.99
2019-05-05T04:36:35.550Z,99.99
2019-05-05T04:37:35.756Z,99.99
2019-05-05T04:38:35.966Z,99.99
2019-05-05T04:39:36.181Z,99.99
2019-05-05T04:40:36.392Z,99.99
2019-05-05T04:41:36.599Z,99.99
2019-05-05T04:42:36.831Z,99.91
2019-05-05T04:43:36.997Z,99.45
2019-05-05T04:44:37.171Z,99.14
2019-05-05T04:45:37.356Z,98.20
2019-05-05T04:46:37.604Z,97.94
2019-05-05T04:47:37.794Z,98.14
2019-05-05T04:48:37.977Z,97.41
2019-05-05T04:49:38.202Z,98.66
2019-05-05T04:50:38.410Z,98.87
2019-05-05T04:51:47.683Z,98.66
2019-05-05T04:52:40.758Z,98.04
2019-05-05T04:53:38.917Z,98.46
2019-05-05T04:54:39.104Z,98.66
2019-05-05T04:55:39.275Z,98.97
2019-05-05T04:56:39.478Z,98.56
2019-05-05T04:57:39.730Z,98.77
2019-05-05T04:58:39.935Z,98.97
2019-05-05T04:59:40.137Z,99.08
2019-05-05T05:00:40.305Z,99.96
2019-05-05T05:01:40.500Z,99.60
2019-05-05T05:02:40.722Z,99.91
2019-05-05T05:03:40.944Z,99.81
2019-05-05T05:04:41.139Z,99.81
2019-05-05T05:05:41.349Z,99.99
2019-05-05T05:06:43.511Z,99.71
2019-05-05T05:07:43.793Z,99.87
2019-05-05T05:08:41.934Z,99.50
2019-05-05T05:09:43.449Z,99.50
2019-05-05T05:10:43.773Z,99.44
2019-05-05T05:11:44.271Z,99.44
2019-05-05T05:12:43.558Z,99.96
2019-05-05T05:13:44.129Z,99.71
2019-05-05T05:14:44.249Z,99.60
2019-05-05T05:15:44.690Z,99.99
2019-05-05T05:16:44.444Z,99.99
2019-05-05T05:17:44.338Z,99.99
2019-05-05T05:18:44.790Z,99.66
2019-05-05T05:19:43.963Z,99.55
2019-05-05T05:20:44.413Z,99.87
2019-05-05T05:21:57.605Z,99.41
2019-05-05T05:22:45.427Z,98.93
2019-05-05T05:23:44.643Z,98.78
2019-05-05T05:24:45.745Z,98.68
2019-05-05T05:25:44.897Z,98.63
2019-05-05T05:26:45.088Z,98.11
2019-05-05T05:27:45.303Z,98.53
2019-05-05T05:28:45.528Z,97.49
2019-05-05T05:29:45.788Z,98.11
2019-05-05T05:30:46.755Z,97.34
2019-05-05T05:31:46.770Z,97.70
2019-05-05T05:32:46.742Z,97.07
2019-05-05T05:33:47.259Z,97.07
2019-05-05T05:34:46.434Z,97.55
2019-05-05T05:35:46.629Z,97.55
2019-05-05T05:36:46.847Z,97.86
2019-05-05T05:37:47.055Z,97.03
2019-05-05T05:38:47.218Z,96.86
2019-05-05T05:39:47.796Z,97.91
2019-05-05T05:40:48.264Z,98.01
2019-05-05T05:41:47.805Z,98.07
2019-05-05T05:42:48.725Z,97.44
2019-05-05T05:43:49.152Z,97.13
2019-05-05T05:44:48.365Z,97.34
2019-05-05T05:45:48.436Z,97.92
2019-05-05T05:46:48.657Z,97.30
2019-05-05T05:47:48.845Z,97.61
2019-05-05T05:48:49.033Z,96.88
2019-05-05T05:49:49.250Z,96.92
2019-05-05T05:50:50.280Z,96.98
2019-05-05T05:51:50.235Z,97.30
2019-05-05T05:52:50.768Z,97.45
2019-05-05T05:53:49.986Z,97.52
2019-05-05T05:54:50.143Z,97.52
2019-05-05T05:55:50.334Z,96.69
2019-05-05T05:56:50.561Z,96.79
2019-05-05T05:57:50.724Z,96.00
2019-05-05T05:58:50.897Z,96.36
2019-05-05T05:59:51.060Z,96.83
2019-05-05T06:00:51.259Z,97.04
2019-05-05T06:01:51.423Z,97.41
2019-05-05T06:02:51.652Z,97.00
2019-05-05T06:03:53.498Z,96.95
2019-05-05T06:04:53.769Z,96.85
2019-05-05T06:05:54.052Z,96.08
2019-05-05T06:06:54.261Z,96.02
2019-05-05T06:07:54.479Z,95.71
2019-05-05T06:08:54.402Z,94.46
2019-05-05T06:09:54.268Z,94.71
2019-05-05T06:10:54.861Z,95.34
2019-05-05T06:11:54.530Z,96.95
2019-05-05T06:12:54.790Z,96.27
2019-05-05T06:13:55.734Z,96.17
2019-05-05T06:14:54.109Z,96.06
2019-05-05T06:15:54.758Z,95.86
2019-05-05T06:16:54.405Z,96.23
2019-05-05T06:17:55.229Z,95.81
2019-05-05T06:18:54.744Z,95.56
2019-05-05T06:19:54.893Z,96.24
2019-05-05T06:20:55.034Z,95.04
2019-05-05T06:21:55.198Z,94.84
2019-05-05T06:22:56.224Z,95.19
2019-05-05T06:23:55.457Z,95.77
2019-05-05T06:24:55.583Z,94.94
2019-05-05T06:25:55.728Z,95.25
2019-05-05T06:26:55.907Z,95.62
2019-05-05T06:27:56.250Z,95.10
2019-05-05T06:28:56.281Z,95.93
2019-05-05T06:29:57.232Z,95.47
2019-05-05T06:30:56.738Z,94.79
2019-05-05T06:31:56.819Z,94.17
2019-05-05T06:32:57.749Z,94.17
2019-05-05T06:33:57.141Z,94.68
2019-05-05T06:34:57.271Z,94.68
2019-05-05T06:35:57.741Z,95.20
2019-05-05T06:36:57.671Z,95.00
2019-05-05T06:37:57.815Z,95.83
2019-05-05T06:38:58.736Z,94.79
2019-05-05T06:39:58.140Z,94.89
2019-05-05T06:40:58.311Z,95.41
2019-05-05T06:41:58.468Z,95.51
2019-05-05T06:42:58.743Z,95.78
2019-05-05T06:43:58.791Z,95.16
2019-05-05T06:44:59.726Z,95.89
2019-05-05T06:45:59.730Z,94.81
2019-05-05T06:47:00.234Z,95.12
2019-05-05T06:47:59.527Z,93.98
2019-05-05T06:48:59.751Z,92.63
2019-05-05T06:49:59.953Z,92.47
2019-05-05T06:51:00.743Z,92.63
2019-05-05T06:52:00.278Z,92.74
2019-05-05T06:53:00.750Z,92.01
2019-05-05T06:54:01.229Z,91.80
2019-05-05T06:55:03.635Z,91.91
2019-05-05T06:56:01.126Z,91.39
2019-05-05T06:57:04.329Z,92.11
2019-05-05T06:58:04.460Z,93.52
2019-05-05T06:59:01.519Z,92.18
2019-05-05T07:00:03.508Z,92.13
2019-05-05T07:01:03.604Z,91.20
2019-05-05T07:02:04.278Z,90.78
2019-05-05T07:03:07.320Z,90.72
2019-05-05T07:04:03.485Z,91.93
2019-05-05T07:05:04.154Z,91.93
2019-05-05T07:06:04.458Z,90.64
2019-05-05T07:07:05.106Z,90.26
2019-05-05T07:08:04.522Z,90.95
2019-05-05T07:09:05.487Z,90.16
2019-05-05T07:10:04.586Z,89.34
2019-05-05T07:11:04.170Z,90.89
2019-05-05T07:12:04.975Z,92.13
2019-05-05T07:13:04.946Z,90.68
2019-05-05T07:14:05.248Z,90.02
2019-05-05T07:15:04.422Z,90.99
2019-05-05T07:16:05.004Z,90.41
2019-05-05T07:17:05.815Z,90.72
2019-05-05T07:18:04.963Z,91.35
2019-05-05T07:19:05.732Z,90.06
2019-05-05T07:20:05.759Z,90.26
2019-05-05T07:21:05.546Z,92.40
2019-05-05T07:22:05.734Z,89.81
2019-05-05T07:23:06.741Z,90.23
2019-05-05T07:24:06.135Z,90.39
2019-05-05T07:25:06.325Z,90.91
2019-05-05T07:26:06.491Z,90.08
2019-05-05T07:27:06.754Z,88.67
2019-05-05T07:28:06.799Z,91.05
2019-05-05T07:29:07.731Z,91.16
2019-05-05T07:30:07.735Z,89.81
2019-05-05T07:31:07.778Z,91.26
2019-05-05T07:32:08.227Z,90.12
2019-05-05T07:33:08.233Z,88.88
2019-05-05T07:34:07.780Z,89.19
2019-05-05T07:35:08.004Z,89.40
2019-05-05T07:36:08.259Z,90.53
2019-05-05T07:37:09.273Z,90.12
2019-05-05T07:38:08.547Z,90.23
2019-05-05T07:39:09.282Z,89.61
2019-05-05T07:40:09.735Z,90.02
2019-05-05T07:41:09.246Z,91.20
2019-05-05T07:42:10.275Z,91.26
2019-05-05T07:43:09.413Z,90.68
2019-05-05T07:44:22.691Z,91.41
2019-05-05T07:45:20.267Z,92.85
2019-05-05T07:46:13.555Z,92.55
2019-05-05T07:47:10.736Z,92.44
2019-05-05T07:48:10.270Z,93.37
2019-05-05T07:49:11.258Z,93.79
2019-05-05T07:50:25.512Z,93.79
2019-05-05T07:51:14.113Z,93.10
2019-05-05T07:52:11.204Z,93.31
2019-05-05T07:53:14.843Z,93.52
2019-05-05T07:54:14.546Z,94.76
2019-05-05T07:55:11.692Z,94.31
2019-05-05T07:56:14.295Z,94.31
2019-05-05T07:57:12.055Z,94.62
2019-05-05T07:58:13.891Z,93.27
2019-05-05T07:59:14.505Z,93.21
2019-05-05T08:00:14.819Z,93.58
2019-05-05T08:01:14.151Z,92.50
2019-05-05T08:02:14.593Z,93.54
2019-05-05T08:03:14.449Z,92.46
2019-05-05T08:04:14.752Z,91.80
2019-05-05T08:05:14.097Z,90.62
2019-05-05T08:06:14.741Z,89.59
2019-05-05T08:07:15.271Z,89.34
2019-05-05T08:08:14.093Z,89.95
2019-05-05T08:09:14.933Z,90.26
2019-05-05T08:10:14.055Z,90.02
2019-05-05T08:11:14.856Z,89.40
2019-05-05T08:12:15.473Z,87.13
2019-05-05T08:13:15.267Z,89.19
2019-05-05T08:14:14.801Z,89.81
2019-05-05T08:15:14.975Z,89.50
2019-05-05T08:16:15.135Z,88.98
2019-05-05T08:17:16.269Z,87.99
2019-05-05T08:18:16.252Z,89.44
2019-05-05T08:19:15.648Z,89.28
2019-05-05T08:20:19.152Z,90.47
2019-05-05T08:21:16.010Z,90.68
2019-05-05T08:22:16.257Z,90.58
2019-05-05T08:23:29.234Z,87.99
2019-05-05T08:24:18.593Z,89.23
2019-05-05T08:25:16.712Z,88.92
2019-05-05T08:26:17.747Z,89.28
2019-05-05T08:27:20.875Z,89.62
2019-05-05T08:28:17.744Z,89.48
2019-05-05T08:29:17.419Z,89.65
2019-05-05T08:30:17.584Z,90.06
2019-05-05T08:31:18.740Z,89.40
2019-05-05T08:32:18.754Z,90.33
2019-05-05T08:33:18.750Z,90.84
2019-05-05T08:34:18.170Z,87.92
2019-05-05T08:35:18.362Z,86.98
2019-05-05T08:36:18.536Z,88.12
2019-05-05T08:37:18.734Z,86.98
2019-05-05T08:38:19.755Z,88.64
2019-05-05T08:39:21.478Z,88.02
2019-05-05T08:40:20.195Z,87.63
2019-05-05T08:41:19.354Z,85.50
2019-05-05T08:42:19.600Z,86.90
2019-05-05T08:43:19.690Z,84.84
2019-05-05T08:44:20.741Z,83.98
2019-05-05T08:45:23.527Z,86.45
2019-05-05T08:46:24.622Z,86.80
2019-05-05T08:47:20.374Z,87.07
2019-05-05T08:48:20.562Z,83.67
2019-05-05T08:49:21.247Z,85.46
2019-05-05T08:50:24.043Z,87.38
2019-05-05T08:51:24.687Z,86.35
2019-05-05T08:52:23.842Z,85.49
2019-05-05T08:53:21.540Z,85.28
2019-05-05T08:54:23.608Z,85.55
2019-05-05T08:55:21.921Z,83.70
2019-05-05T08:56:23.786Z,83.39
2019-05-05T08:57:23.616Z,85.51
2019-05-05T08:58:23.772Z,83.51
2019-05-05T08:59:24.217Z,83.17
2019-05-05T09:00:24.462Z,78.72
2019-05-05T09:01:24.046Z,81.65
2019-05-05T09:02:23.909Z,81.61
2019-05-05T09:03:24.406Z,83.01
2019-05-05T09:04:24.758Z,81.47
2019-05-05T09:05:24.689Z,81.57
2019-05-05T09:06:24.207Z,84.11
2019-05-05T09:07:25.021Z,82.42
2019-05-05T09:08:24.749Z,79.85
2019-05-05T09:09:24.794Z,78.92
2019-05-05T09:10:24.605Z,78.86
2019-05-05T09:11:24.781Z,79.75
2019-05-05T09:12:24.954Z,78.06
2019-05-05T09:13:25.146Z,77.38
2019-05-05T09:14:25.307Z,77.62
2019-05-05T09:15:25.525Z,81.74
2019-05-05T09:16:26.258Z,82.19
2019-05-05T09:17:28.049Z,82.54
2019-05-05T09:18:27.099Z,83.61
2019-05-05T09:19:26.225Z,87.26
2019-05-05T09:20:26.417Z,87.05
2019-05-05T09:21:27.303Z,87.34
2019-05-05T09:22:26.826Z,87.00
2019-05-05T09:23:27.023Z,87.21
2019-05-05T09:24:27.191Z,90.04
2019-05-05T09:25:27.384Z,90.83
2019-05-05T09:26:27.785Z,91.13
2019-05-05T09:27:28.391Z,90.83
2019-05-05T09:28:28.900Z,89.65
2019-05-05T09:29:28.050Z,88.20
2019-05-05T09:30:28.758Z,87.99
2019-05-05T09:31:28.765Z,87.44
2019-05-05T09:32:28.519Z,87.74
2019-05-05T09:33:28.680Z,87.66
2019-05-05T09:34:28.856Z,86.12
2019-05-05T09:35:29.004Z,88.41
2019-05-05T09:36:29.219Z,84.25
2019-05-05T09:37:29.373Z,81.61
2019-05-05T09:38:30.305Z,80.44
2019-05-05T09:39:30.713Z,83.45
2019-05-05T09:40:30.774Z,83.55
2019-05-05T09:41:30.009Z,82.76
2019-05-05T09:42:30.181Z,78.20
2019-05-05T09:43:30.779Z,78.37
2019-05-05T09:44:30.527Z,76.86
2019-05-05T09:45:31.294Z,79.75
2019-05-05T09:46:33.947Z,78.37
2019-05-05T09:47:31.269Z,77.38
2019-05-05T09:48:33.422Z,76.35
2019-05-05T09:49:31.331Z,84.34
2019-05-05T09:50:31.496Z,79.05
2019-05-05T09:51:34.550Z,81.90
2019-05-05T09:52:33.783Z,78.94
2019-05-05T09:53:34.255Z,79.63
2019-05-05T09:54:34.385Z,81.54
2019-05-05T09:55:33.604Z,74.87
2019-05-05T09:56:33.902Z,73.10
2019-05-05T09:57:34.421Z,74.67
2019-05-05T09:58:34.780Z,74.22
2019-05-05T09:59:34.698Z,75.56
2019-05-05T10:00:33.767Z,76.55
2019-05-05T10:01:33.886Z,76.00
2019-05-05T10:02:34.578Z,73.74
2019-05-05T10:03:34.631Z,74.90
2019-05-05T10:04:33.779Z,72.82
2019-05-05T10:05:34.272Z,74.26
2019-05-05T10:06:35.143Z,76.23
2019-05-05T10:07:34.650Z,68.97
2019-05-05T10:08:35.473Z,68.22
2019-05-05T10:09:34.671Z,68.35
2019-05-05T10:10:34.718Z,70.36
2019-05-05T10:11:35.367Z,72.58
2019-05-05T10:12:36.052Z,75.82
2019-05-05T10:13:35.249Z,72.58
2019-05-05T10:14:35.333Z,72.61
2019-05-05T10:15:36.257Z,78.02
2019-05-05T10:16:35.657Z,75.82
2019-05-05T10:17:35.836Z,73.44
2019-05-05T10:18:36.265Z,71.86
2019-05-05T10:19:36.181Z,72.34
2019-05-05T10:20:36.367Z,73.13
2019-05-05T10:21:36.571Z,69.76
2019-05-05T10:22:37.264Z,68.71
2019-05-05T10:23:37.301Z,61.85
2019-05-05T10:24:37.058Z,62.70
2019-05-05T10:25:37.236Z,64.81
2019-05-05T10:26:37.410Z,66.44
2019-05-05T10:27:44.870Z,56.81
2019-05-05T10:28:39.711Z,63.95
2019-05-05T10:29:38.278Z,62.21
2019-05-05T10:30:38.118Z,62.16
2019-05-05T10:31:38.388Z,61.21
2019-05-05T10:32:38.449Z,55.15
2019-05-05T10:33:38.646Z,60.16
2019-05-05T10:34:39.771Z,57.31
2019-05-05T10:35:39.767Z,56.70
2019-05-05T10:36:39.417Z,56.15
2019-05-05T10:37:39.335Z,63.45
2019-05-05T10:38:39.516Z,61.37
2019-05-05T10:39:39.700Z,60.33
2019-05-05T10:40:39.922Z,65.77
2019-05-05T10:41:40.794Z,61.83
2019-05-05T10:42:40.321Z,64.39
2019-05-05T10:43:40.503Z,66.07
2019-05-05T10:44:40.686Z,61.54
2019-05-05T10:45:41.282Z,60.69
2019-05-05T10:46:41.125Z,62.65
2019-05-05T10:47:41.309Z,57.62
2019-05-05T10:48:44.441Z,60.61
2019-05-05T10:49:43.997Z,58.52
2019-05-05T10:50:44.261Z,64.49
2019-05-05T10:51:43.929Z,59.64
2019-05-05T10:52:44.294Z,56.10
2019-05-05T10:53:43.825Z,56.27
2019-05-05T10:54:44.909Z,55.94
2019-05-05T10:55:44.978Z,56.85
2019-05-05T10:56:44.342Z,53.55
2019-05-05T10:57:43.685Z,54.74
2019-05-05T10:58:44.821Z,48.42
2019-05-05T10:59:44.359Z,50.90
2019-05-05T11:00:44.388Z,52.68
2019-05-05T11:01:44.849Z,52.62
2019-05-05T11:02:43.965Z,54.31
2019-05-05T11:03:45.148Z,57.60
2019-05-05T11:05:05.267Z,58.09
2019-05-05T11:05:45.001Z,55.99
2019-05-05T11:06:45.680Z,56.53
2019-05-05T11:07:45.796Z,58.29
2019-05-05T11:08:45.233Z,57.81
2019-05-05T11:09:46.137Z,58.75
2019-05-05T11:10:45.344Z,53.75
2019-05-05T11:11:45.467Z,52.09
2019-05-05T11:12:45.627Z,55.20
2019-05-05T11:13:45.780Z,53.96
2019-05-05T11:14:45.941Z,51.32
2019-05-05T11:15:46.106Z,54.72
2019-05-05T11:16:46.302Z,55.15
2019-05-05T11:17:46.466Z,59.30
2019-05-05T11:18:46.666Z,58.98
2019-05-05T11:19:46.843Z,58.09
2019-05-05T11:20:46.995Z,62.11
2019-05-05T11:21:47.788Z,62.68
2019-05-05T11:22:47.371Z,67.21
2019-05-05T11:23:48.297Z,70.29
2019-05-05T11:24:59.964Z,70.80
2019-05-05T11:25:49.837Z,71.45
2019-05-05T11:26:47.984Z,72.20
2019-05-05T11:27:48.217Z,73.81
2019-05-05T11:28:48.436Z,74.12
2019-05-05T11:29:48.807Z,73.16
2019-05-05T11:30:48.855Z,72.65
2019-05-05T11:31:49.045Z,72.44
2019-05-05T11:32:49.243Z,72.96
2019-05-05T11:33:49.454Z,72.89
2019-05-05T11:34:49.695Z,73.16
2019-05-05T11:35:50.779Z,73.06
2019-05-05T11:36:50.061Z,73.23
2019-05-05T11:37:50.243Z,73.91
2019-05-05T11:38:50.422Z,73.16
2019-05-05T11:39:50.642Z,71.80
2019-05-05T11:40:50.825Z,69.60
2019-05-05T11:41:50.984Z,71.76
2019-05-05T11:42:51.178Z,72.65
2019-05-05T11:43:53.356Z,70.12
2019-05-05T11:44:51.511Z,70.29
2019-05-05T11:45:51.669Z,70.16
2019-05-05T11:46:51.834Z,65.18
2019-05-05T11:47:53.644Z,64.95
2019-05-05T11:48:54.213Z,68.22
2019-05-05T11:49:54.608Z,67.10
2019-05-05T11:50:54.192Z,64.98
2019-05-05T11:51:54.337Z,64.98
2019-05-05T11:52:54.504Z,67.74
2019-05-05T11:54:15.061Z,65.37
2019-05-05T11:55:08.173Z,66.74
2019-05-05T11:55:55.082Z,71.45
2019-05-05T11:56:55.285Z,65.81
2019-05-05T11:57:54.507Z,66.94
2019-05-05T11:58:55.058Z,66.67
2019-05-05T11:59:54.181Z,67.49
2019-05-05T12:00:54.744Z,68.51
2019-05-05T12:01:55.502Z,69.71
2019-05-05T12:02:55.303Z,68.48
2019-05-05T12:03:54.798Z,70.22
2019-05-05T12:04:54.932Z,66.84
2019-05-05T12:05:55.107Z,68.92
2019-05-05T12:06:55.268Z,65.23
2019-05-05T12:07:55.400Z,65.20
2019-05-05T12:08:56.319Z,65.95
2019-05-05T12:09:56.283Z,67.69
2019-05-05T12:10:55.935Z,67.94
2019-05-05T12:11:56.070Z,66.19
2019-05-05T12:12:56.221Z,67.32
2019-05-05T12:13:56.374Z,66.60
2019-05-05T12:14:56.521Z,66.40
2019-05-05T12:15:56.707Z,64.53
2019-05-05T12:16:56.872Z,64.13
2019-05-05T12:17:57.299Z,63.79
2019-05-05T12:18:57.185Z,59.95
2019-05-05T12:19:57.353Z,60.94
2019-05-05T12:20:57.803Z,60.13
2019-05-05T12:21:57.778Z,60.44
2019-05-05T12:22:57.925Z,58.25
2019-05-05T12:23:58.082Z,60.68
2019-05-05T12:24:58.227Z,64.12
2019-05-05T12:25:58.371Z,63.40
2019-05-05T12:26:58.558Z,64.32
2019-05-05T12:27:58.700Z,64.45
2019-05-05T12:28:58.866Z,66.27
2019-05-05T12:29:59.783Z,66.75
2019-05-05T12:30:59.289Z,63.95
2019-05-05T12:31:59.798Z,59.38
2019-05-05T12:32:59.675Z,62.93
2019-05-05T12:33:59.796Z,60.65
2019-05-05T12:34:59.961Z,60.24
2019-05-05T12:36:00.136Z,59.37
2019-05-05T12:37:00.337Z,56.53
2019-05-05T12:38:00.510Z,54.33
2019-05-05T12:39:00.687Z,56.61
2019-05-05T12:40:00.841Z,57.10
2019-05-05T12:41:00.980Z,56.15
2019-05-05T12:42:01.131Z,54.64
2019-05-05T12:43:03.535Z,52.86
2019-05-05T12:44:03.289Z,52.88
2019-05-05T12:45:01.562Z,53.88
2019-05-05T12:46:01.706Z,52.60
2019-05-05T12:47:03.402Z,54.85
2019-05-05T12:48:02.309Z,54.85
2019-05-05T12:49:02.226Z,55.58
2019-05-05T12:50:02.353Z,55.76
2019-05-05T12:51:04.186Z,55.61
2019-05-05T12:52:04.518Z,53.55
2019-05-05T12:53:04.035Z,55.74
2019-05-05T12:54:04.596Z,52.00
2019-05-05T12:55:05.040Z,51.92